Time;durP1;ratioP1;P1;durP2;ratioP2;P2;SDS_P1;SDS_P2;PMS_P1;PMS_P2;Temp;Humidity;BMP_temperature;BMP_pressure;BME280_temperature;BME280_humidity;BME280_pressure;Samples;Min_cycle;Max_cycle;Signal;HPM_P1;HPM_P2
2022/01/30 00:02:15;;;;;;;1.40;1.00;;;;;;;6.22;100.00;99614.28;4989165;28;20031;-72
2022/01/30 00:04:41;;;;;;;2.55;0.75;;;;;;;6.32;100.00;99624.94;4988812;28;20030;-71
2022/01/30 00:07:06;;;;;;;6.00;1.10;;;;;;;6.30;100.00;99622.41;5000543;28;20014;-72
2022/01/30 00:09:32;;;;;;;1.25;0.82;;;;;;;6.21;100.00;99599.16;4985901;28;20543;-72
2022/01/30 00:12:01;;;;;;;1.55;0.70;;;;;;;6.38;100.00;99623.47;4988520;28;20027;-72
2022/01/30 00:14:30;;;;;;;0.68;0.63;;;;;;;6.26;100.00;99601.38;4986576;28;20030;-71
2022/01/30 00:17:05;;;;;;;1.45;0.90;;;;;;;6.24;100.00;99608.75;4983443;28;20038;-71
2022/01/30 00:19:39;;;;;;;1.20;0.90;;;;;;;6.27;100.00;99611.13;4992748;28;20034;-71
2022/01/30 00:22:20;;;;;;;1.30;0.80;;;;;;;6.38;100.00;99618.09;4999207;28;20022;-71
2022/01/30 00:27:17;;;;;;;1.67;1.00;;;;;;;6.49;100.00;99623.22;5004345;28;20026;-71
2022/01/30 00:29:42;;;;;;;1.42;0.95;;;;;;;6.49;99.93;99607.91;4992294;28;20042;-71
2022/01/30 00:32:08;;;;;;;2.17;1.30;;;;;;;6.40;100.00;99598.13;4985769;28;20015;-71
2022/01/30 00:34:33;;;;;;;2.22;1.08;;;;;;;6.50;100.00;99606.94;4991131;28;20037;-71
2022/01/30 00:37:01;;;;;;;1.35;0.70;;;;;;;6.36;100.00;99594.06;4982998;28;20756;-71
2022/01/30 00:39:26;;;;;;;1.98;1.20;;;;;;;6.45;100.00;99611.09;4996417;28;20423;-71
2022/01/30 00:41:52;;;;;;;1.75;0.90;;;;;;;6.27;100.00;99598.53;4991279;28;20030;-71
2022/01/30 00:44:17;;;;;;;2.03;1.20;;;;;;;6.37;100.00;99617.25;4988740;28;20034;-71
2022/01/30 00:46:44;;;;;;;1.70;1.10;;;;;;;6.31;100.00;99604.44;4986724;28;20022;-71
2022/01/30 00:49:09;;;;;;;1.58;1.00;;;;;;;6.25;100.00;99603.22;4994051;28;20473;-71
2022/01/30 00:51:37;;;;;;;2.20;1.20;;;;;;;6.40;100.00;99625.00;4996014;28;20038;-71
2022/01/30 00:54:03;;;;;;;2.25;1.20;;;;;;;6.39;100.00;99630.53;4991099;28;20040;-72
2022/01/30 00:56:28;;;;;;;1.17;0.90;;;;;;;6.41;100.00;99633.91;4988214;28;20492;-71
2022/01/30 00:58:53;;;;;;;1.95;0.90;;;;;;;6.26;100.00;99610.28;4987351;28;20050;-71
2022/01/30 01:01:19;;;;;;;3.47;1.20;;;;;;;6.27;100.00;99606.59;5005531;28;20065;-71
2022/01/30 01:03:44;;;;;;;1.60;1.05;;;;;;;6.43;100.00;99632.75;4988209;28;20523;-71
2022/01/30 01:06:09;;;;;;;1.88;1.05;;;;;;;6.48;100.00;99633.13;4983744;28;20088;-71
2022/01/30 01:08:47;;;;;;;2.25;1.10;;;;;;;6.48;100.00;99629.59;4995795;28;20217;-71
2022/01/30 01:24:08;;;;;;;2.15;1.10;;;;;;;6.47;100.00;99650.28;4990895;28;20022;-72
2022/01/30 01:26:36;;;;;;;1.30;1.02;;;;;;;6.35;100.00;99638.06;4985332;28;20544;-72
2022/01/30 01:29:02;;;;;;;1.67;1.00;;;;;;;6.45;100.00;99646.03;4987653;28;20033;-72
2022/01/30 01:31:27;;;;;;;0.98;0.80;;;;;;;6.44;100.00;99634.44;4985756;28;21590;-73
2022/01/30 01:36:34;;;;;;;3.25;1.20;;;;;;;6.41;100.00;99634.75;4985627;28;20084;-72
2022/01/30 01:38:59;;;;;;;1.73;1.10;;;;;;;6.39;100.00;99636.75;4994705;28;20030;-72
2022/01/30 01:41:26;;;;;;;2.88;1.30;;;;;;;6.32;100.00;99615.03;4985630;28;20062;-72
2022/01/30 01:43:52;;;;;;;3.53;1.27;;;;;;;6.42;100.00;99635.59;4982389;28;20082;-72
2022/01/30 01:46:23;;;;;;;1.52;1.20;;;;;;;6.41;100.00;99642.81;4989700;28;20249;-72
2022/01/30 01:48:51;;;;;;;1.73;1.38;;;;;;;6.38;100.00;99647.66;4991102;28;20022;-72
2022/01/30 01:51:23;;;;;;;1.90;1.13;;;;;;;6.39;100.00;99627.84;4999058;28;20024;-72
2022/01/30 01:53:51;;;;;;;1.83;1.50;;;;;;;6.39;100.00;99633.22;4991186;28;20033;-72
2022/01/30 01:56:18;;;;;;;3.40;1.35;;;;;;;6.37;100.00;99628.00;4990673;28;20026;-72
2022/01/30 01:58:44;;;;;;;2.22;1.25;;;;;;;6.41;100.00;99634.75;4978242;28;20030;-72
2022/01/30 02:01:10;;;;;;;3.17;1.05;;;;;;;6.38;100.00;99626.16;4979476;28;20102;-72
2022/01/30 02:03:37;;;;;;;1.83;1.20;;;;;;;6.42;100.00;99633.75;4977615;28;20096;-72
2022/01/30 02:06:04;;;;;;;1.50;0.90;;;;;;;6.32;100.00;99608.81;4972814;28;20308;-72
2022/01/30 02:11:04;;;;;;;1.75;1.20;;;;;;;6.45;100.00;99611.09;4985452;28;20037;-72
2022/01/30 02:14:12;;;;;;;1.33;0.80;;;;;;;6.44;100.00;99606.72;4983184;28;20035;-72
2022/01/30 02:27:14;;;;;;;2.95;0.80;;;;;;;6.34;100.00;99613.03;4984709;28;20061;-72
2022/01/30 02:29:40;;;;;;;2.00;0.80;;;;;;;6.31;99.47;99605.28;4988109;28;20034;-72
2022/01/30 02:32:06;;;;;;;4.05;0.68;;;;;;;6.22;99.89;99603.53;4987359;28;20031;-73
2022/01/30 02:34:31;;;;;;;1.90;0.88;;;;;;;6.31;99.71;99623.25;4988512;28;20033;-73
2022/01/30 02:36:58;;;;;;;1.30;0.77;;;;;;;6.32;99.43;99631.16;4984836;28;20034;-73
2022/01/30 02:39:24;;;;;;;1.27;0.82;;;;;;;6.29;99.85;99607.28;4983771;28;20096;-72
2022/01/30 02:41:49;;;;;;;0.95;0.68;;;;;;;6.11;100.00;99591.19;4986373;28;20034;-72
2022/01/30 02:44:24;;;;;;;2.67;0.90;;;;;;;6.21;100.00;99620.66;4988212;28;20041;-72
2022/01/30 02:46:52;;;;;;;1.13;0.70;;;;;;;6.18;100.00;99623.63;4989104;28;20018;-72
2022/01/30 02:51:53;;;;;;;3.17;1.00;;;;;;;6.04;100.00;99613.44;4985358;28;20049;-72
2022/01/30 02:54:19;;;;;;;2.00;1.00;;;;;;;6.02;100.00;99629.72;4993131;28;20040;-72
2022/01/30 02:56:45;;;;;;;1.50;1.10;;;;;;;6.00;100.00;99633.53;4984919;28;20034;-72
2022/01/30 02:59:11;;;;;;;2.50;1.10;;;;;;;6.00;100.00;99628.16;4983772;28;20041;-72
2022/01/30 03:01:36;;;;;;;2.17;1.20;;;;;;;6.02;100.00;99642.31;4988071;28;20492;-72
2022/01/30 03:04:02;;;;;;;1.65;1.10;;;;;;;5.95;100.00;99628.66;4985409;28;20033;-73
2022/01/30 03:06:27;;;;;;;2.47;1.10;;;;;;;5.98;100.00;99651.69;4989447;28;20026;-72
2022/01/30 03:08:53;;;;;;;2.45;1.17;;;;;;;6.00;100.00;99658.59;4988454;28;20038;-72
2022/01/30 03:11:18;;;;;;;3.63;1.50;;;;;;;5.97;100.00;99658.03;4985517;28;20061;-72
2022/01/30 03:13:43;;;;;;;2.70;1.17;;;;;;;5.89;100.00;99637.28;4997927;28;20031;-72
2022/01/30 03:16:09;;;;;;;3.55;1.33;;;;;;;6.04;100.00;99665.31;4998964;28;20040;-72
2022/01/30 03:18:34;;;;;;;7.07;1.95;;;;;;;6.00;100.00;99657.72;5004928;28;20015;-72
2022/01/30 03:20:59;;;;;;;4.30;1.27;;;;;;;5.93;100.00;99642.22;5002820;28;20030;-72
2022/01/30 03:23:25;;;;;;;2.92;1.50;;;;;;;5.85;100.00;99623.31;4988070;28;20495;-73
2022/01/30 03:25:54;;;;;;;3.50;1.45;;;;;;;6.05;100.00;99655.41;4996205;28;20026;-73
2022/01/30 03:28:19;;;;;;;3.25;1.58;;;;;;;6.01;100.00;99651.38;4995078;28;20026;-73
2022/01/30 03:30:45;;;;;;;6.72;1.40;;;;;;;6.05;100.00;99667.03;4996813;28;20022;-73
2022/01/30 03:33:10;;;;;;;3.22;1.60;;;;;;;6.07;100.00;99672.25;4982803;28;20036;-73
2022/01/30 03:35:36;;;;;;;3.10;1.55;;;;;;;5.84;100.00;99634.19;4990642;28;20048;-72
2022/01/30 03:38:01;;;;;;;1.75;1.15;;;;;;;5.84;100.00;99637.75;4987487;28;20069;-72
2022/01/30 03:40:26;;;;;;;2.30;1.33;;;;;;;6.00;100.00;99663.97;4988189;28;20053;-72
2022/01/30 03:42:52;;;;;;;6.45;1.90;;;;;;;6.04;99.58;99680.59;4981101;28;20414;-72
2022/01/30 03:45:17;;;;;;;6.85;1.33;;;;;;;6.15;98.96;99680.38;4981101;28;20152;-72
2022/01/30 03:47:42;;;;;;;4.88;1.70;;;;;;;6.10;98.94;99674.63;4986123;28;20023;-72
2022/01/30 03:50:08;;;;;;;3.65;1.52;;;;;;;6.07;98.49;99656.97;5005790;28;20026;-73
2022/01/30 03:52:33;;;;;;;5.03;1.90;;;;;;;6.21;98.24;99682.47;4982236;28;20085;-73
2022/01/30 03:54:59;;;;;;;3.65;1.80;;;;;;;6.12;98.87;99678.00;4985171;28;20038;-72
2022/01/30 03:57:24;;;;;;;7.90;1.80;;;;;;;6.00;98.73;99657.72;4982030;28;20037;-72
2022/01/30 03:59:49;;;;;;;3.45;1.20;;;;;;;5.93;98.92;99654.78;4979107;28;20030;-72
2022/01/30 04:02:14;;;;;;;4.25;1.73;;;;;;;6.08;99.19;99698.97;4985269;28;20049;-72
2022/01/30 04:04:40;;;;;;;8.85;2.08;;;;;;;6.00;99.38;99692.63;4984912;28;20037;-72
2022/01/30 04:07:06;;;;;;;5.10;1.58;;;;;;;5.87;99.50;99695.69;4993195;28;20475;-72
2022/01/30 04:09:31;;;;;;;3.92;1.65;;;;;;;5.78;99.38;99665.19;4983022;28;20030;-72
2022/01/30 04:11:56;;;;;;;7.93;1.58;;;;;;;5.98;99.59;99716.97;4988427;28;20034;-72
2022/01/30 04:14:22;;;;;;;5.63;1.60;;;;;;;5.88;99.46;99702.75;4986498;28;20030;-72
2022/01/30 04:16:47;;;;;;;4.03;1.40;;;;;;;5.68;99.73;99667.94;4987273;28;20118;-73
2022/01/30 04:19:13;;;;;;;2.83;1.40;;;;;;;5.84;99.90;99710.25;4988038;28;20137;-73
2022/01/30 04:21:39;;;;;;;5.07;2.47;;;;;;;5.96;100.00;99728.88;4981745;28;20100;-72
2022/01/30 04:24:05;;;;;;;5.43;1.50;;;;;;;5.90;100.00;99716.88;4984871;28;20045;-71
2022/01/30 04:26:31;;;;;;;2.40;1.55;;;;;;;5.84;100.00;99706.72;4989093;28;20035;-71
2022/01/30 04:28:56;;;;;;;6.45;1.80;;;;;;;5.60;100.00;99675.91;4992361;28;20026;-73
2022/01/30 04:31:22;;;;;;;6.57;2.08;;;;;;;5.81;100.00;99713.22;4988807;28;20037;-72
2022/01/30 04:33:48;;;;;;;2.88;1.50;;;;;;;5.84;100.00;99723.69;4983576;28;20157;-72
2022/01/30 04:36:18;;;;;;;5.45;1.70;;;;;;;5.89;100.00;99721.41;4986098;28;20073;-72
2022/01/30 04:52:30;;;;;;;7.75;1.65;;;;;;;5.81;99.09;99712.38;4975660;28;20041;-72
2022/01/30 04:57:41;;;;;;;4.88;1.60;;;;;;;5.89;98.29;99712.47;4987926;28;20045;-72
2022/01/30 05:07:48;;;;;;;8.47;1.50;;;;;;;5.75;98.00;99710.31;4981694;28;20045;-72
2022/01/30 05:10:14;;;;;;;6.60;1.73;;;;;;;5.72;98.76;99714.97;4987567;28;20034;-72
2022/01/30 05:12:49;;;;;;;7.78;1.85;;;;;;;5.65;98.66;99715.72;4986565;28;20065;-72
2022/01/30 05:15:17;;;;;;;4.25;1.63;;;;;;;5.71;99.04;99724.03;4981270;28;20444;-72
2022/01/30 05:17:43;;;;;;;5.23;1.90;;;;;;;5.76;98.82;99730.78;4989052;28;20405;-72
2022/01/30 05:20:09;;;;;;;11.23;1.92;;;;;;;5.73;98.26;99737.28;4986064;28;20061;-72
2022/01/30 05:22:35;;;;;;;4.80;1.40;;;;;;;5.75;97.83;99739.84;4978672;28;20038;-72
2022/01/30 05:25:01;;;;;;;5.95;1.92;;;;;;;5.62;97.75;99734.81;5000994;28;20030;-72
2022/01/30 05:27:26;;;;;;;5.07;1.70;;;;;;;5.69;96.31;99738.59;4995950;28;20026;-71
2022/01/30 05:29:52;;;;;;;5.13;1.83;;;;;;;5.43;96.48;99714.28;4990272;28;20030;-72
2022/01/30 05:32:17;;;;;;;9.18;1.77;;;;;;;5.55;97.23;99747.97;4990513;28;20045;-72
2022/01/30 05:34:43;;;;;;;5.82;1.92;;;;;;;5.32;97.69;99736.78;4977949;28;20027;-72
2022/01/30 05:37:09;;;;;;;9.77;1.88;;;;;;;5.33;97.34;99746.53;4983512;28;20030;-72
2022/01/30 05:39:34;;;;;;;12.48;2.17;;;;;;;5.15;98.25;99753.63;4987917;28;20520;-72
2022/01/30 05:42:00;;;;;;;6.40;1.83;;;;;;;5.08;98.70;99750.66;4983633;28;20057;-72
2022/01/30 05:44:39;;;;;;;7.80;1.92;;;;;;;5.03;99.11;99761.84;4986029;28;20042;-72
2022/01/30 05:47:09;;;;;;;6.38;1.80;;;;;;;5.02;99.20;99768.19;4988620;28;20026;-72
2022/01/30 05:49:36;;;;;;;8.73;1.95;;;;;;;4.92;98.87;99756.63;5001588;28;20111;-72
2022/01/30 05:52:02;;;;;;;7.40;1.80;;;;;;;4.87;99.50;99756.22;4987137;28;20108;-72
2022/01/30 05:54:27;;;;;;;8.95;2.25;;;;;;;4.83;98.95;99763.72;4983470;28;20062;-72
2022/01/30 05:56:52;;;;;;;11.85;2.53;;;;;;;4.89;98.73;99791.78;5000999;28;20581;-72
2022/01/30 05:59:18;;;;;;;10.60;2.00;;;;;;;4.90;98.82;99792.63;4984327;28;20037;-72
2022/01/30 06:01:43;;;;;;;8.38;1.80;;;;;;;4.98;98.30;99811.56;4976915;28;20481;-72
2022/01/30 06:04:08;;;;;;;9.18;1.92;;;;;;;4.96;98.52;99814.38;4988779;28;20029;-72
2022/01/30 06:06:33;;;;;;;7.18;1.67;;;;;;;5.01;97.30;99822.00;4986989;28;20035;-72
2022/01/30 06:09:18;;;;;;;12.10;1.90;;;;;;;5.03;96.89;99812.81;4990265;28;20029;-72
2022/01/30 06:11:46;;;;;;;9.02;2.10;;;;;;;5.10;96.33;99815.75;4990832;28;20030;-72
2022/01/30 06:14:11;;;;;;;9.23;2.10;;;;;;;5.14;95.87;99816.34;4992034;28;20032;-72
2022/01/30 06:16:36;;;;;;;7.72;2.05;;;;;;;5.16;96.05;99825.06;5005417;28;20030;-72
2022/01/30 06:19:02;;;;;;;11.95;2.50;;;;;;;5.13;96.53;99815.47;4982910;28;20045;-72
2022/01/30 06:21:28;;;;;;;11.60;2.00;;;;;;;4.93;96.58;99785.16;4999616;28;20157;-73
2022/01/30 06:23:54;;;;;;;14.77;2.38;;;;;;;5.13;96.76;99820.00;5005196;28;20110;-72
2022/01/30 06:26:19;;;;;;;10.52;1.90;;;;;;;5.12;96.61;99818.31;5007565;28;20147;-72
2022/01/30 06:28:44;;;;;;;11.75;2.47;;;;;;;5.10;96.31;99814.91;4989610;28;20676;-72
2022/01/30 06:31:10;;;;;;;9.07;2.35;;;;;;;5.15;96.53;99847.53;4988972;28;20026;-72
2022/01/30 06:33:35;;;;;;;11.30;2.78;;;;;;;5.13;97.05;99846.81;4990682;28;20029;-72
2022/01/30 06:36:00;;;;;;;6.47;2.28;;;;;;;5.09;96.89;99840.91;4985191;28;20018;-72
2022/01/30 06:38:26;;;;;;;7.13;2.22;;;;;;;5.06;97.05;99849.22;4995570;28;20181;-71
2022/01/30 06:40:51;;;;;;;13.60;2.30;;;;;;;4.98;98.20;99843.75;4991096;28;20026;-72
2022/01/30 06:43:16;;;;;;;4.25;1.80;;;;;;;4.81;97.53;99832.72;4996034;28;20037;-72
2022/01/30 06:45:42;;;;;;;5.72;2.10;;;;;;;4.88;97.91;99848.25;4992164;28;20042;-71
2022/01/30 06:48:08;;;;;;;7.70;2.60;;;;;;;4.89;97.72;99852.63;4989816;28;20734;-72
2022/01/30 06:50:34;;;;;;;11.35;2.50;;;;;;;4.86;98.10;99845.69;4989367;28;20034;-72
2022/01/30 06:52:59;;;;;;;6.13;2.03;;;;;;;4.83;98.84;99854.88;4988441;28;20030;-72
2022/01/30 06:55:24;;;;;;;9.60;2.15;;;;;;;4.75;98.65;99838.66;5003067;28;20034;-73
2022/01/30 06:57:50;;;;;;;9.52;2.25;;;;;;;4.81;98.11;99866.72;4992849;28;20061;-71
2022/01/30 07:00:15;;;;;;;11.45;2.60;;;;;;;4.79;97.57;99864.19;4989117;28;20033;-72
2022/01/30 07:02:41;;;;;;;11.40;3.00;;;;;;;4.83;97.17;99878.16;4985857;28;20030;-72
2022/01/30 07:05:06;;;;;;;8.32;2.00;;;;;;;4.60;96.79;99850.75;4983133;28;20158;-72
2022/01/30 07:07:31;;;;;;;12.57;2.03;;;;;;;4.77;97.33;99890.28;4989326;28;20125;-72
2022/01/30 07:09:57;;;;;;;8.73;2.17;;;;;;;4.82;97.40;99898.78;5000548;28;20388;-73
2022/01/30 07:12:23;;;;;;;10.73;2.42;;;;;;;4.54;96.85;99852.16;4984582;28;20034;-72
2022/01/30 07:14:48;;;;;;;7.82;1.90;;;;;;;4.72;96.73;99878.31;4990536;28;20113;-72
2022/01/30 07:17:14;;;;;;;13.43;2.42;;;;;;;4.79;95.59;99890.13;4999417;28;20022;-72
2022/01/30 07:19:39;;;;;;;11.65;3.03;;;;;;;4.92;95.88;99922.03;4990648;28;20026;-72
2022/01/30 07:22:05;;;;;;;7.35;2.42;;;;;;;4.80;94.87;99900.72;4991772;28;20879;-76
2022/01/30 07:24:31;;;;;;;11.00;1.90;;;;;;;4.87;95.06;99901.00;4981963;28;20030;-71
2022/01/30 07:26:56;;;;;;;6.03;1.92;;;;;;;4.83;94.90;99908.50;4976765;28;20105;-74
2022/01/30 07:29:22;;;;;;;7.97;1.98;;;;;;;4.95;94.42;99928.00;4983148;28;20057;-74
2022/01/30 07:31:47;;;;;;;11.27;2.72;;;;;;;5.02;94.47;99945.19;4982458;28;20022;-73
2022/01/30 07:34:13;;;;;;;12.38;3.13;;;;;;;4.94;94.97;99938.84;4984866;28;20030;-73
2022/01/30 07:36:39;;;;;;;13.60;3.50;;;;;;;4.97;94.38;99960.03;4989259;28;20054;-76
2022/01/30 07:39:07;;;;;;;10.00;2.90;;;;;;;4.81;94.30;99931.06;4987460;28;20387;-75
2022/01/30 07:41:33;;;;;;;8.90;2.95;;;;;;;4.88;94.11;99948.31;4990025;28;20050;-81
2022/01/30 07:44:00;;;;;;;9.15;2.60;;;;;;;4.91;92.37;99934.63;4993067;28;20068;-83
2022/01/30 07:46:26;;;;;;;11.48;2.35;;;;;;;5.02;91.70;99939.84;4991868;28;20030;-80
2022/01/30 07:48:51;;;;;;;8.20;2.25;;;;;;;4.94;91.83;99917.41;4988930;28;20400;-79
2022/01/30 07:51:16;;;;;;;7.70;2.38;;;;;;;4.98;91.92;99945.66;4981441;28;20030;-77
2022/01/30 07:53:41;;;;;;;11.10;2.65;;;;;;;5.20;90.13;99961.47;4986913;28;20022;-76
2022/01/30 07:56:07;;;;;;;10.45;2.10;;;;;;;5.05;90.13;99926.16;5007277;28;20022;-79
2022/01/30 07:58:32;;;;;;;11.75;2.08;;;;;;;5.12;89.81;99926.44;4992934;28;20084;-80
2022/01/30 08:00:57;;;;;;;6.00;2.05;;;;;;;5.18;89.83;99938.44;4991171;28;20076;-73
2022/01/30 08:03:27;;;;;;;8.82;2.33;;;;;;;5.27;89.71;99937.59;5002379;28;20154;-81
2022/01/30 08:05:52;;;;;;;11.52;2.28;;;;;;;5.34;89.20;99933.34;5004341;28;20033;-87
2022/01/30 08:08:18;;;;;;;12.07;4.50;;;;;;;5.21;88.93;99930.97;5012790;28;20098;-79
2022/01/30 08:10:43;;;;;;;10.50;2.08;;;;;;;5.11;89.60;99916.72;5013214;28;20034;-78
2022/01/30 08:13:08;;;;;;;8.77;2.33;;;;;;;5.36;88.15;99917.13;5008557;28;20058;-80
2022/01/30 08:15:33;;;;;;;7.70;1.75;;;;;;;6.77;80.25;99890.16;4996161;28;20015;-74
2022/01/30 08:17:59;;;;;;;6.85;1.92;;;;;;;8.04;72.94;99908.69;4988999;28;20479;-74
2022/01/30 08:20:26;;;;;;;13.40;2.25;;;;;;;7.80;70.24;99885.97;4989860;28;20028;-77
2022/01/30 08:22:53;;;;;;;14.10;2.10;;;;;;;9.15;66.88;99916.69;4985759;28;20023;-70
2022/01/30 08:25:21;;;;;;;6.75;1.60;;;;;;;10.23;62.56;99911.84;4978187;28;20054;-72
2022/01/30 08:27:47;;;;;;;9.50;1.73;;;;;;;10.76;59.14;99914.88;4973310;28;20027;-69
2022/01/30 08:30:12;;;;;;;8.85;1.73;;;;;;;10.91;56.70;99896.03;4988220;28;20042;-70
2022/01/30 08:32:42;;;;;;;5.63;1.30;;;;;;;9.99;57.36;99918.19;4985987;28;20038;-71
2022/01/30 08:35:09;;;;;;;10.02;2.13;;;;;;;10.02;57.06;99911.59;4991712;28;20042;-70
2022/01/30 08:37:36;;;;;;;10.93;2.85;;;;;;;10.22;56.76;99918.28;4990895;28;20034;-79
2022/01/30 08:40:09;;;;;;;12.25;2.00;;;;;;;10.89;56.09;99908.88;4988775;28;20026;-69
2022/01/30 08:42:35;;;;;;;6.20;1.33;;;;;;;10.91;55.20;99904.16;4987874;28;20034;-71
2022/01/30 08:45:01;;;;;;;12.38;2.00;;;;;;;10.73;55.50;99904.41;5001594;28;20041;-73
2022/01/30 08:47:26;;;;;;;8.50;1.50;;;;;;;11.27;54.98;99926.09;4985475;28;20030;-72
2022/01/30 08:49:52;;;;;;;8.90;1.85;;;;;;;11.61;53.88;99909.38;4976206;28;20097;-71
2022/01/30 08:52:19;;;;;;;9.77;1.65;;;;;;;11.76;54.37;99927.53;4984228;28;20134;-69
2022/01/30 08:54:54;;;;;;;10.00;1.85;;;;;;;11.26;54.40;99916.25;4982089;28;20064;-70
2022/01/30 08:57:19;;;;;;;10.95;1.80;;;;;;;9.50;58.45;99920.94;4982438;28;20037;-69
2022/01/30 08:59:45;;;;;;;5.93;1.35;;;;;;;9.61;58.62;99898.13;4984722;28;20038;-72
2022/01/30 09:02:11;;;;;;;9.57;1.80;;;;;;;11.26;54.71;99905.41;4987383;28;20018;-69
2022/01/30 09:04:36;;;;;;;8.93;1.67;;;;;;;11.68;50.56;99904.06;5002231;28;20085;-70
2022/01/30 09:07:02;;;;;;;11.48;1.58;;;;;;;12.39;47.35;99907.25;4982707;28;20065;-69
2022/01/30 09:09:30;;;;;;;11.85;1.30;;;;;;;12.78;46.12;99906.06;4993444;28;20046;-76
2022/01/30 09:11:56;;;;;;;8.25;1.77;;;;;;;13.18;43.72;99892.94;4964403;28;20657;-74
2022/01/30 09:14:22;;;;;;;11.35;1.55;;;;;;;13.34;44.07;99906.28;4988433;28;20061;-68
2022/01/30 09:16:48;;;;;;;5.13;1.50;;;;;;;13.65;42.65;99902.41;4986889;28;20022;-67
2022/01/30 09:19:14;;;;;;;6.25;1.15;;;;;;;13.94;41.02;99914.97;4987477;28;20089;-71
2022/01/30 09:21:40;;;;;;;4.35;1.40;;;;;;;13.52;41.74;99915.88;4984448;28;20105;-69
2022/01/30 09:24:06;;;;;;;10.43;1.73;;;;;;;12.90;42.76;99896.41;4988934;28;20740;-69
2022/01/30 09:26:31;;;;;;;11.15;1.90;;;;;;;13.49;40.88;99932.56;4986493;28;20033;-65
2022/01/30 09:28:57;;;;;;;6.75;1.48;;;;;;;13.76;39.82;99907.28;4989526;28;20480;-69
2022/01/30 09:31:22;;;;;;;7.10;1.55;;;;;;;14.28;40.62;99918.75;4988897;28;20103;-72
2022/01/30 09:33:48;;;;;;;6.32;1.58;;;;;;;13.47;40.00;99931.94;4987734;28;20027;-72
2022/01/30 09:36:14;;;;;;;9.43;1.85;;;;;;;13.75;40.41;99942.84;4994495;28;20036;-68
2022/01/30 09:38:42;;;;;;;11.18;2.25;;;;;;;13.90;40.12;99940.88;4980970;28;20070;-68
2022/01/30 09:41:09;;;;;;;6.63;1.55;;;;;;;13.58;39.31;99923.25;4988192;28;20037;-69
2022/01/30 09:43:35;;;;;;;7.63;1.40;;;;;;;13.27;40.72;99948.88;4980505;28;20117;-73
2022/01/30 09:46:01;;;;;;;7.07;1.40;;;;;;;12.97;39.21;99930.94;5002797;28;20037;-73
2022/01/30 09:48:27;;;;;;;9.20;1.77;;;;;;;12.94;38.58;99949.31;4979528;28;20030;-74
2022/01/30 09:50:54;;;;;;;13.00;1.48;;;;;;;13.73;38.31;99955.81;4992515;28;20029;-74
2022/01/30 09:53:20;;;;;;;8.23;2.28;;;;;;;12.54;39.34;99928.09;4989243;28;20034;-70
2022/01/30 09:55:45;;;;;;;5.15;1.15;;;;;;;11.01;42.23;99956.22;4989550;28;20029;-70
2022/01/30 09:58:11;;;;;;;6.55;1.55;;;;;;;10.23;44.41;99957.84;4992500;28;20049;-72
2022/01/30 10:00:37;;;;;;;9.38;1.40;;;;;;;8.94;46.54;99966.59;4988594;28;20037;-76
2022/01/30 10:03:03;;;;;;;8.45;1.85;;;;;;;7.85;49.04;99936.69;4985658;28;20031;-75
2022/01/30 10:05:33;;;;;;;12.38;1.52;;;;;;;7.46;51.63;99980.16;4987106;28;20508;-70
2022/01/30 10:07:58;;;;;;;14.68;2.00;;;;;;;7.02;52.56;99945.94;4992563;28;20038;-73
2022/01/30 10:10:28;;;;;;;7.72;1.55;;;;;;;6.87;53.42;99968.13;4987065;28;20034;-70
2022/01/30 10:13:14;;;;;;;10.15;2.00;;;;;;;6.88;54.02;99989.47;5000230;28;20061;-77
2022/01/30 10:16:00;;;;;;;6.57;1.00;;;;;;;7.05;53.25;100000.41;4992260;28;20380;-76
2022/01/30 10:18:31;;;;;;;5.18;1.08;;;;;;;7.02;55.27;100005.13;4987346;28;20162;-73
2022/01/30 10:20:57;;;;;;;8.32;1.15;;;;;;;6.47;53.75;99974.66;4999501;28;20033;-77
2022/01/30 10:23:34;;;;;;;8.27;1.30;;;;;;;6.79;54.81;100003.84;4986289;28;20026;-72
2022/01/30 10:26:01;;;;;;;10.82;0.98;;;;;;;7.04;54.81;100007.66;4980726;28;20041;-74
2022/01/30 10:28:32;;;;;;;8.90;1.27;;;;;;;7.03;54.61;100020.25;4981564;28;20029;-72
2022/01/30 10:31:01;;;;;;;6.70;1.10;;;;;;;6.84;53.45;99980.03;4987162;28;20030;-74
2022/01/30 10:33:45;;;;;;;12.05;1.92;;;;;;;7.11;54.62;100008.75;4984232;28;20107;-74
2022/01/30 10:36:17;;;;;;;10.60;1.70;;;;;;;9.51;48.42;99979.38;4982965;28;20089;-73
2022/01/30 10:38:51;;;;;;;5.13;1.17;;;;;;;11.77;43.64;99986.19;4984968;28;20113;-74
2022/01/30 10:41:20;;;;;;;10.30;1.60;;;;;;;14.09;39.64;99968.44;4989947;28;20058;-70
2022/01/30 10:43:50;;;;;;;6.05;1.63;;;;;;;14.76;37.98;99980.66;4989982;28;20041;-72
2022/01/30 10:46:17;;;;;;;4.55;1.10;;;;;;;13.05;38.50;99947.13;5002151;28;20037;-72
2022/01/30 10:48:53;;;;;;;8.52;1.80;;;;;;;11.08;43.98;99984.28;4998736;28;20029;-71
2022/01/30 10:51:18;;;;;;;8.80;1.15;;;;;;;11.31;42.95;99943.66;4992450;28;20077;-70
2022/01/30 10:53:46;;;;;;;5.18;1.15;;;;;;;13.46;41.66;99990.03;4991454;28;20053;-71
2022/01/30 10:56:27;;;;;;;8.20;1.65;;;;;;;12.89;42.75;99970.78;4989306;28;20062;-70
2022/01/30 10:59:08;;;;;;;12.50;1.92;;;;;;;12.63;43.37;99973.97;4990341;28;20057;-67
2022/01/30 11:01:34;;;;;;;8.88;1.88;;;;;;;11.79;44.03;99957.03;5005163;28;20464;-65
2022/01/30 11:04:02;;;;;;;6.95;2.22;;;;;;;10.56;45.54;99979.44;4992389;28;20061;-65
2022/01/30 11:06:29;;;;;;;7.78;1.30;;;;;;;9.42;48.24;99978.50;4991354;28;20547;-64
2022/01/30 11:09:04;;;;;;;8.55;1.38;;;;;;;8.56;49.30;99973.34;4987055;28;20567;-67
2022/01/30 11:11:35;;;;;;;6.47;1.13;;;;;;;8.53;49.48;100001.50;4992595;28;20034;-69
2022/01/30 11:19:16;;;;;;;6.38;1.25;;;;;;;9.11;49.31;99980.97;5006182;28;20041;-69
2022/01/30 11:21:43;;;;;;;6.57;1.23;;;;;;;11.83;42.88;99971.88;4995359;28;20023;-69
2022/01/30 11:24:12;;;;;;;6.03;1.25;;;;;;;11.22;42.96;99942.03;4990711;28;20033;-67
2022/01/30 11:26:38;;;;;;;;;;;;;;;12.60;41.19;99968.06;4984821;28;20670;-68
2022/01/30 11:29:08;;;;;;;5.10;1.02;;;;;;;11.65;41.89;99936.94;5001769;28;19909;-76
2022/01/30 11:31:34;;;;;;;4.68;1.00;;;;;;;10.83;43.11;99969.16;4993190;28;20060;-71
2022/01/30 11:34:01;;;;;;;6.03;1.13;;;;;;;9.63;45.24;99955.53;4987621;28;20031;-75
2022/01/30 11:36:26;;;;;;;4.47;0.98;;;;;;;9.76;47.05;99966.69;4984966;28;20499;-74
2022/01/30 11:38:53;;;;;;;3.75;0.70;;;;;;;10.34;45.40;99931.47;4996497;28;20038;-77
2022/01/30 11:41:20;;;;;;;4.13;0.85;;;;;;;11.47;43.02;99953.53;4991559;28;20351;-67
2022/01/30 11:44:17;;;;;;;8.40;1.30;;;;;;;11.57;41.83;99945.16;4982907;28;20022;-67
2022/01/30 11:46:43;;;;;;;7.32;1.23;;;;;;;12.96;40.70;99940.13;4982593;28;20424;-67
2022/01/30 11:49:13;;;;;;;7.65;1.65;;;;;;;12.69;41.10;99935.19;4987698;28;20038;-67
2022/01/30 11:51:52;;;;;;;8.60;1.40;;;;;;;12.08;42.11;99926.44;4988662;28;20084;-67
2022/01/30 11:54:40;;;;;;;11.77;1.70;;;;;;;11.55;44.08;99911.97;4993188;28;20030;-67
2022/01/30 11:57:18;;;;;;;10.02;1.48;;;;;;;11.28;44.75;99913.38;4987671;28;20130;-71
2022/01/30 11:59:45;;;;;;;5.63;1.23;;;;;;;11.98;43.43;99910.41;4985612;28;20034;-67
2022/01/30 12:02:33;;;;;;;4.18;1.00;;;;;;;11.50;43.52;99906.25;4987283;28;20117;-68
2022/01/30 12:05:00;;;;;;;10.63;1.60;;;;;;;12.60;42.87;99897.47;4987314;28;20038;-68
2022/01/30 12:07:42;;;;;;;11.80;2.17;;;;;;;10.50;46.57;99904.34;4990864;28;20042;-67
2022/01/30 12:10:20;;;;;;;6.45;1.48;;;;;;;10.21;47.62;99915.75;4988382;28;20046;-67
2022/01/30 12:12:50;;;;;;;7.20;1.67;;;;;;;9.51;49.01;99919.06;4987200;28;20061;-67
2022/01/30 12:15:43;;;;;;;6.28;1.90;;;;;;;8.47;51.40;99926.63;4971857;28;20033;-67
2022/01/30 12:18:10;;;;;;;8.65;1.33;;;;;;;7.80;53.53;99923.69;4981342;28;20038;-69
2022/01/30 12:20:55;;;;;;;10.93;1.35;;;;;;;7.71;53.73;99929.19;4986674;28;20037;-69
2022/01/30 12:23:30;;;;;;;9.63;1.60;;;;;;;7.68;54.04;99915.03;4989653;28;20033;-69
2022/01/30 12:26:16;;;;;;;7.93;1.85;;;;;;;7.38;55.09;99927.06;4987855;28;20038;-69
2022/01/30 12:28:54;;;;;;;5.80;1.65;;;;;;;7.31;55.72;99933.22;4982343;28;20030;-69
2022/01/30 12:31:34;;;;;;;9.90;1.73;;;;;;;7.40;56.01;99926.94;4979690;28;20405;-69
2022/01/30 12:34:15;;;;;;;10.27;2.20;;;;;;;7.46;57.05;99934.38;4989967;28;20407;-70
2022/01/30 12:36:43;;;;;;;20.85;4.78;;;;;;;7.29;57.79;99911.03;4985367;28;20069;-69
2022/01/30 12:39:18;;;;;;;9.73;1.65;;;;;;;7.53;57.09;99926.53;4977618;28;20030;-68
2022/01/30 12:41:45;;;;;;;10.85;2.72;;;;;;;7.56;56.36;99902.81;4987813;28;20514;-69
2022/01/30 12:44:15;;;;;;;9.57;2.08;;;;;;;7.62;56.65;99918.38;4982120;28;20045;-70